createdAt,value
2022-08-04T00:01:30.670Z,89.12
2022-08-04T00:04:10.094Z,89.05
2022-08-04T00:07:03.378Z,89.09
2022-08-04T00:09:55.220Z,88.96
2022-08-04T00:12:31.411Z,88.95
2022-08-04T00:15:02.302Z,89.07
2022-08-04T00:17:55.120Z,89.03
2022-08-04T00:20:25.231Z,89.02
2022-08-04T00:22:53.995Z,89.23
2022-08-04T00:25:23.229Z,88.92
2022-08-04T00:27:52.075Z,88.89
2022-08-04T00:30:21.011Z,89.10
2022-08-04T00:32:50.328Z,88.98
2022-08-04T00:35:18.689Z,89.04
2022-08-04T00:37:47.745Z,89.02
2022-08-04T00:41:06.558Z,89.37
2022-08-04T00:43:55.804Z,89.10
2022-08-04T00:46:26.633Z,88.91
2022-08-04T00:49:19.718Z,88.94
2022-08-04T00:52:30.915Z,89.07
2022-08-04T00:55:20.624Z,89.19
2022-08-04T00:58:04.154Z,89.28
2022-08-04T01:00:44.551Z,89.33
2022-08-04T01:03:30.357Z,89.34
2022-08-04T01:06:17.519Z,89.28
2022-08-04T01:09:11.258Z,89.09
2022-08-04T01:12:19.733Z,89.02
2022-08-04T01:15:04.114Z,89.04
2022-08-04T01:17:35.732Z,89.17
2022-08-04T01:20:09.385Z,89.21
2022-08-04T01:23:06.375Z,89.43
2022-08-04T01:25:57.934Z,89.85
2022-08-04T01:28:47.058Z,90.04
2022-08-04T01:31:26.329Z,90.79
2022-08-04T01:34:03.911Z,91.23
2022-08-04T01:36:35.958Z,91.32
2022-08-04T01:39:27.707Z,91.58
2022-08-04T01:41:58.704Z,91.48
2022-08-04T01:44:31.674Z,91.38
2022-08-04T01:47:02.097Z,91.46
2022-08-04T01:49:40.189Z,91.73
2022-08-04T01:52:10.604Z,91.63
2022-08-04T01:54:42.551Z,92.23
2022-08-04T01:57:37.186Z,93.30
2022-08-04T02:00:00.968Z,94.03
2022-08-04T02:02:29.949Z,94.51
2022-08-04T02:04:58.381Z,94.77
2022-08-04T02:08:02.265Z,94.69
2022-08-04T02:10:47.690Z,94.56
2022-08-04T02:13:44.649Z,94.34
2022-08-04T02:16:31.386Z,94.46
2022-08-04T02:19:14.616Z,94.11
2022-08-04T02:21:48.904Z,93.91
2022-08-04T02:24:21.876Z,93.84
2022-08-04T02:26:52.324Z,93.94
2022-08-04T02:29:32.021Z,93.74
2022-08-04T02:32:06.350Z,93.72
2022-08-04T02:35:06.656Z,93.32
2022-08-04T02:37:35.897Z,93.39
2022-08-04T02:40:06.767Z,93.27
2022-08-04T02:42:35.618Z,93.32
2022-08-04T02:45:05.656Z,93.38
2022-08-04T02:48:08.270Z,93.51
2022-08-04T02:50:28.945Z,93.45
2022-08-04T02:53:03.246Z,93.35
2022-08-04T02:55:34.083Z,93.70
2022-08-04T02:58:04.366Z,93.77
2022-08-04T03:00:33.322Z,93.55
2022-08-04T03:03:31.370Z,93.34
2022-08-04T03:06:11.734Z,93.50
2022-08-04T03:08:58.703Z,93.39
2022-08-04T03:12:05.815Z,93.46
2022-08-04T03:14:52.302Z,93.96
2022-08-04T03:17:29.697Z,93.42
2022-08-04T03:19:57.926Z,93.76
2022-08-04T03:23:12.440Z,93.34
2022-08-04T03:25:59.646Z,93.48
2022-08-04T03:28:52.236Z,92.95
2022-08-04T03:31:35.365Z,93.17
2022-08-04T03:34:33.746Z,92.93
2022-08-04T03:37:17.214Z,92.98
2022-08-04T03:40:08.957Z,92.86
2022-08-04T03:43:03.879Z,92.97
2022-08-04T03:45:41.252Z,93.11
2022-08-04T03:48:31.327Z,93.05
2022-08-04T03:51:34.989Z,93.52
2022-08-04T03:54:31.176Z,93.84
2022-08-04T03:57:36.741Z,94.15
2022-08-04T04:00:21.590Z,94.10
2022-08-04T04:03:28.734Z,94.61
2022-08-04T04:06:16.485Z,95.14
2022-08-04T04:09:24.175Z,95.76
2022-08-04T04:12:16.535Z,95.87
2022-08-04T04:14:44.803Z,95.88
2022-08-04T04:17:36.247Z,96.07
2022-08-04T04:20:10.938Z,96.07
2022-08-04T04:22:51.944Z,96.04
2022-08-04T04:25:33.013Z,96.05
2022-08-04T04:28:45.365Z,95.69
2022-08-04T04:31:19.031Z,95.60
2022-08-04T04:34:09.692Z,95.42
2022-08-04T04:36:58.500Z,94.82
2022-08-04T04:39:43.144Z,94.19
2022-08-04T04:42:36.298Z,93.99
2022-08-04T04:45:23.505Z,93.60
2022-08-04T04:48:08.329Z,93.01
2022-08-04T04:51:29.794Z,92.39
2022-08-04T04:54:07.258Z,91.60
2022-08-04T04:56:35.397Z,91.04
2022-08-04T04:59:10.228Z,90.58
2022-08-04T05:01:51.868Z,90.49
2022-08-04T05:04:48.317Z,89.86
2022-08-04T05:07:40.815Z,88.89
2022-08-04T05:10:31.038Z,88.02
2022-08-04T05:14:38.496Z,87.24
2022-08-04T05:16:27.447Z,86.19
2022-08-04T05:19:16.305Z,85.38
2022-08-04T05:21:53.239Z,84.39
2022-08-04T05:24:24.183Z,84.03
2022-08-04T05:26:56.058Z,83.63
2022-08-04T05:29:36.311Z,84.25
2022-08-04T05:32:12.864Z,83.97
2022-08-04T05:34:53.366Z,83.49
2022-08-04T05:37:24.130Z,82.84
2022-08-04T05:40:04.822Z,81.56
2022-08-04T05:42:38.171Z,81.25
2022-08-04T05:45:09.557Z,80.96
2022-08-04T05:47:38.657Z,80.05
2022-08-04T05:50:08.592Z,79.45
2022-08-04T05:52:38.027Z,78.83
2022-08-04T05:55:09.129Z,78.61
2022-08-04T05:57:40.673Z,78.68
2022-08-04T06:00:31.716Z,78.57
2022-08-04T06:02:59.470Z,79.02
2022-08-04T06:05:29.282Z,78.61
2022-08-04T06:08:12.273Z,78.32
2022-08-04T06:10:44.817Z,77.69
2022-08-04T06:13:48.919Z,77.65
2022-08-04T06:16:15.686Z,76.57
2022-08-04T06:20:02.709Z,74.64
2022-08-04T06:21:52.495Z,73.75
2022-08-04T06:24:25.120Z,73.34
2022-08-04T06:26:55.261Z,72.39
2022-08-04T06:29:28.338Z,72.27
2022-08-04T06:32:28.797Z,71.77
2022-08-04T06:34:48.299Z,70.94
2022-08-04T06:37:18.352Z,69.11
2022-08-04T06:40:31.867Z,69.83
2022-08-04T06:42:58.660Z,68.81
2022-08-04T06:45:27.428Z,69.13
2022-08-04T06:47:56.621Z,68.58
2022-08-04T06:51:32.783Z,68.57
2022-08-04T06:53:14.421Z,68.34
2022-08-04T06:55:45.220Z,66.55
2022-08-04T06:58:16.578Z,65.97
2022-08-04T07:00:47.341Z,64.05
2022-08-04T07:03:18.299Z,60.74
2022-08-04T07:05:48.230Z,61.08
2022-08-04T07:08:17.301Z,60.75
2022-08-04T07:10:46.492Z,59.68
2022-08-04T07:13:15.992Z,59.40
2022-08-04T07:15:46.913Z,59.38
2022-08-04T07:18:15.914Z,59.04
2022-08-04T07:20:49.222Z,59.62
2022-08-04T07:23:24.486Z,59.38
2022-08-04T07:25:59.818Z,60.28
2022-08-04T07:28:42.140Z,58.92
2022-08-04T07:31:33.326Z,57.50
2022-08-04T07:34:16.575Z,55.59
2022-08-04T07:36:50.945Z,56.85
2022-08-04T07:39:27.919Z,57.11
2022-08-04T07:42:02.142Z,55.37
2022-08-04T07:44:35.483Z,55.45
2022-08-04T07:47:06.806Z,56.50
2022-08-04T07:49:54.804Z,55.99
2022-08-04T07:52:27.059Z,54.70
2022-08-04T07:54:56.048Z,54.06
2022-08-04T07:57:40.464Z,54.14
2022-08-04T08:00:14.287Z,52.66
2022-08-04T08:02:45.821Z,52.57
2022-08-04T08:05:17.084Z,53.55
2022-08-04T08:07:50.925Z,53.51
2022-08-04T08:10:24.644Z,50.75
2022-08-04T08:12:54.074Z,50.49
2022-08-04T08:15:23.194Z,51.74
2022-08-04T08:17:59.912Z,51.61
2022-08-04T08:20:31.160Z,49.13
2022-08-04T08:23:02.085Z,48.01
2022-08-04T08:25:32.862Z,48.33
2022-08-04T08:28:04.258Z,49.74
2022-08-04T08:30:35.938Z,49.46
2022-08-04T08:33:09.722Z,48.84
2022-08-04T08:36:04.274Z,47.36
2022-08-04T08:38:35.197Z,46.93
2022-08-04T08:41:13.818Z,47.15
2022-08-04T08:44:05.944Z,46.29
2022-08-04T08:47:02.498Z,45.69
2022-08-04T08:50:01.638Z,46.40
2022-08-04T08:53:02.051Z,45.53
2022-08-04T08:55:52.527Z,43.30
2022-08-04T08:58:32.770Z,44.18
2022-08-04T09:01:29.702Z,43.76
2022-08-04T09:04:28.839Z,42.11
2022-08-04T09:07:22.979Z,42.59
2022-08-04T09:10:03.905Z,42.58
2022-08-04T09:12:51.103Z,43.92
2022-08-04T09:15:30.035Z,43.09
2022-08-04T09:18:07.742Z,43.43
2022-08-04T09:20:59.782Z,42.36
2022-08-04T09:23:58.727Z,41.70
2022-08-04T09:26:40.171Z,42.27
2022-08-04T09:29:21.205Z,43.53
2022-08-04T09:32:06.741Z,40.94
2022-08-04T09:35:28.346Z,40.46
2022-08-04T09:38:26.590Z,39.07
2022-08-04T09:40:58.182Z,39.82
2022-08-04T09:44:43.179Z,38.97
2022-08-04T09:46:44.071Z,40.95
2022-08-04T09:49:36.730Z,41.82
2022-08-04T09:52:44.401Z,40.53
2022-08-04T09:55:28.653Z,40.44
2022-08-04T09:58:11.585Z,40.72
2022-08-04T10:00:51.414Z,38.90
2022-08-04T10:03:26.593Z,36.55
2022-08-04T10:06:21.581Z,39.24
2022-08-04T10:09:11.820Z,39.40
2022-08-04T10:12:05.702Z,40.69
2022-08-04T10:14:45.791Z,41.20
2022-08-04T10:17:26.994Z,39.24
2022-08-04T10:20:14.649Z,40.93
2022-08-04T10:23:30.155Z,39.71
2022-08-04T10:26:07.592Z,40.53
2022-08-04T10:28:44.627Z,38.97
2022-08-04T10:31:19.686Z,40.97
2022-08-04T10:33:47.853Z,40.73
2022-08-04T10:36:19.436Z,39.88
2022-08-04T10:39:13.883Z,39.88
2022-08-04T10:42:22.938Z,39.16
2022-08-04T10:45:19.411Z,40.45
2022-08-04T10:48:11.204Z,41.25
2022-08-04T10:50:57.134Z,42.57
2022-08-04T10:53:29.778Z,38.38
2022-08-04T10:56:22.962Z,40.76
2022-08-04T10:58:58.654Z,40.05
2022-08-04T11:01:59.672Z,39.65
2022-08-04T11:04:36.003Z,35.15
2022-08-04T11:07:04.789Z,37.03
2022-08-04T11:09:34.533Z,37.10
2022-08-04T11:12:21.823Z,38.38
2022-08-04T11:15:22.219Z,37.52
2022-08-04T11:17:57.116Z,36.49
2022-08-04T11:20:50.961Z,35.00
2022-08-04T11:23:27.386Z,35.48
2022-08-04T11:26:21.743Z,34.70
2022-08-04T11:29:04.111Z,36.70
2022-08-04T11:31:39.560Z,38.00
2022-08-04T11:34:10.740Z,38.74
2022-08-04T11:37:16.177Z,38.38
2022-08-04T11:40:13.437Z,37.09
2022-08-04T11:43:01.436Z,37.93
2022-08-04T11:45:38.211Z,35.22
2022-08-04T11:48:13.406Z,35.09
2022-08-04T11:50:53.552Z,36.66
2022-08-04T11:53:25.565Z,35.96
2022-08-04T11:56:08.780Z,36.70
2022-08-04T11:58:38.958Z,31.74
2022-08-04T12:01:24.385Z,32.69
2022-08-04T12:04:14.390Z,31.28
2022-08-04T12:07:15.060Z,32.37
2022-08-04T12:09:58.861Z,33.82
2022-08-04T12:12:39.153Z,33.15
2022-08-04T12:15:23.493Z,34.41
2022-08-04T12:18:00.529Z,34.47
2022-08-04T12:20:42.971Z,32.57
2022-08-04T12:23:22.080Z,31.70
2022-08-04T12:25:56.402Z,32.26
2022-08-04T12:29:08.950Z,32.88
2022-08-04T12:31:53.059Z,32.15
2022-08-04T12:34:24.251Z,33.41
2022-08-04T12:37:30.628Z,34.71
2022-08-04T12:40:21.726Z,34.52
2022-08-04T12:43:18.223Z,32.88
2022-08-04T12:45:50.962Z,31.50
2022-08-04T12:48:21.831Z,31.90
2022-08-04T12:50:52.557Z,32.80
2022-08-04T12:53:32.168Z,31.39
2022-08-04T12:56:03.026Z,34.12
2022-08-04T12:58:43.253Z,34.50
2022-08-04T13:02:06.826Z,34.87
2022-08-04T13:04:19.678Z,32.90
2022-08-04T13:06:58.280Z,31.10
2022-08-04T13:09:32.603Z,30.57
2022-08-04T13:12:06.307Z,30.63
2022-08-04T13:14:38.454Z,29.70
2022-08-04T13:17:06.953Z,31.43
2022-08-04T13:19:41.519Z,31.42
2022-08-04T13:22:10.256Z,33.45
2022-08-04T13:25:18.146Z,33.37
2022-08-04T13:27:43.011Z,35.26
2022-08-04T13:30:18.430Z,33.03
2022-08-04T13:33:05.578Z,30.70
2022-08-04T13:35:55.303Z,32.65
2022-08-04T13:38:25.891Z,33.88
2022-08-04T13:40:57.388Z,34.74
2022-08-04T13:44:19.497Z,33.30
2022-08-04T13:46:50.932Z,31.63
2022-08-04T13:49:38.017Z,34.02
2022-08-04T13:52:10.979Z,32.74
2022-08-04T13:54:44.082Z,30.98
2022-08-04T13:57:28.020Z,30.54
2022-08-04T14:00:04.907Z,32.92
2022-08-04T14:02:46.825Z,32.72
2022-08-04T14:05:18.574Z,34.20
2022-08-04T14:08:20.293Z,32.64
2022-08-04T14:10:58.271Z,32.23
2022-08-04T14:13:41.039Z,34.47
2022-08-04T14:16:21.118Z,34.03
2022-08-04T14:18:59.776Z,34.68
2022-08-04T14:21:28.426Z,34.31
2022-08-04T14:23:57.650Z,35.52
2022-08-04T14:26:34.163Z,34.53
2022-08-04T14:29:26.825Z,34.32
2022-08-04T14:32:12.489Z,35.43
2022-08-04T14:34:46.073Z,35.13
2022-08-04T14:37:20.854Z,35.09
2022-08-04T14:40:17.332Z,35.94
2022-08-04T14:42:54.824Z,36.01
2022-08-04T14:45:33.610Z,37.14
2022-08-04T14:48:06.498Z,36.50
2022-08-04T14:50:42.248Z,35.85
2022-08-04T14:53:19.995Z,36.20
2022-08-04T14:55:54.704Z,36.03
2022-08-04T14:58:39.443Z,36.79
2022-08-04T15:01:12.123Z,36.61
2022-08-04T15:03:52.157Z,36.03
2022-08-04T15:06:27.369Z,36.59
2022-08-04T15:08:58.617Z,37.01
2022-08-04T15:11:28.333Z,37.56
2022-08-04T15:13:58.522Z,37.24
2022-08-04T15:16:30.309Z,37.34
2022-08-04T15:18:59.972Z,37.79
2022-08-04T15:21:30.045Z,36.96
2022-08-04T15:23:59.212Z,36.66
2022-08-04T15:26:43.478Z,36.17
2022-08-04T15:29:16.619Z,37.07
2022-08-04T15:32:07.469Z,37.55
2022-08-04T15:34:50.095Z,36.57
2022-08-04T15:37:26.549Z,37.23
2022-08-04T15:40:33.407Z,38.16
2022-08-04T15:43:24.227Z,38.67
2022-08-04T15:46:41.201Z,37.81
2022-08-04T15:48:44.396Z,37.43
2022-08-04T15:51:14.695Z,38.67
2022-08-04T15:54:02.681Z,39.56
2022-08-04T15:56:32.268Z,39.88
2022-08-04T15:59:00.497Z,40.03
2022-08-04T16:01:28.754Z,41.35
2022-08-04T16:03:59.934Z,40.25
2022-08-04T16:06:30.611Z,40.14
2022-08-04T16:09:02.196Z,40.98
2022-08-04T16:11:32.749Z,42.18
2022-08-04T16:14:01.779Z,41.66
2022-08-04T16:16:50.419Z,41.10
2022-08-04T16:19:52.084Z,41.64
2022-08-04T16:22:38.197Z,42.15
2022-08-04T16:25:08.819Z,42.87
2022-08-04T16:27:42.992Z,42.76
2022-08-04T16:30:15.246Z,43.03
2022-08-04T16:32:46.315Z,43.23
2022-08-04T16:35:26.490Z,44.03
2022-08-04T16:38:12.791Z,43.65
2022-08-04T16:40:46.181Z,43.97
2022-08-04T16:43:17.268Z,44.26
2022-08-04T16:45:54.672Z,44.59
2022-08-04T16:48:27.071Z,44.84
2022-08-04T16:51:07.731Z,45.46
2022-08-04T16:53:57.955Z,45.92
2022-08-04T16:56:35.199Z,46.59
2022-08-04T16:59:12.767Z,46.75
2022-08-04T17:01:50.366Z,47.04
2022-08-04T17:04:28.060Z,47.50
2022-08-04T17:07:01.400Z,47.79
2022-08-04T17:09:30.123Z,47.92
2022-08-04T17:12:02.278Z,48.42
2022-08-04T17:14:31.687Z,49.37
2022-08-04T17:17:02.247Z,49.58
2022-08-04T17:19:30.622Z,50.04
2022-08-04T17:22:14.628Z,50.06
2022-08-04T17:24:43.410Z,50.39
2022-08-04T17:28:20.051Z,51.07
2022-08-04T17:30:00.639Z,51.99
2022-08-04T17:32:29.009Z,52.31
2022-08-04T17:35:00.396Z,52.84
2022-08-04T17:37:41.263Z,52.86
2022-08-04T17:40:25.530Z,53.34
2022-08-04T17:44:05.321Z,54.30
2022-08-04T17:46:29.107Z,54.39
2022-08-04T17:49:16.963Z,54.83
2022-08-04T17:52:04.321Z,55.45
2022-08-04T17:54:41.020Z,55.91
2022-08-04T17:57:21.962Z,56.48
2022-08-04T17:59:58.796Z,57.24
2022-08-04T18:02:32.227Z,57.62
2022-08-04T18:05:07.391Z,57.71
2022-08-04T18:08:37.645Z,58.27
2022-08-04T18:10:55.370Z,59.08
2022-08-04T18:13:26.433Z,59.70
2022-08-04T18:16:03.305Z,59.87
2022-08-04T18:18:31.855Z,60.49
2022-08-04T18:21:03.159Z,61.54
2022-08-04T18:23:33.529Z,62.54
2022-08-04T18:26:03.814Z,63.16
2022-08-04T18:28:33.801Z,63.87
2022-08-04T18:31:02.457Z,64.34
2022-08-04T18:33:39.442Z,64.88
2022-08-04T18:36:36.748Z,65.25
2022-08-04T18:39:13.239Z,65.35
2022-08-04T18:42:02.056Z,65.67
2022-08-04T18:44:51.741Z,66.07
2022-08-04T18:47:23.537Z,66.69
2022-08-04T18:50:58.861Z,66.86
2022-08-04T18:52:42.131Z,68.00
2022-08-04T18:55:51.612Z,68.95
2022-08-04T18:58:07.190Z,70.06
2022-08-04T19:00:45.389Z,70.55
2022-08-04T19:06:03.389Z,71.58
2022-08-04T19:08:33.326Z,71.79
2022-08-04T19:11:22.011Z,72.52
2022-08-04T19:13:57.989Z,73.12
2022-08-04T19:16:31.787Z,73.59
2022-08-04T19:19:03.668Z,73.92
2022-08-04T19:21:59.321Z,74.11
2022-08-04T19:24:32.692Z,74.96
2022-08-04T19:27:08.071Z,75.35
2022-08-04T19:29:40.549Z,75.33
2022-08-04T19:32:13.883Z,76.03
2022-08-04T19:34:46.318Z,76.23
2022-08-04T19:37:57.156Z,76.32
2022-08-04T19:40:10.197Z,76.83
2022-08-04T19:42:40.318Z,77.13
2022-08-04T19:45:15.830Z,77.49
2022-08-04T19:48:18.297Z,77.68
2022-08-04T19:50:35.206Z,78.08
2022-08-04T19:53:18.963Z,78.38
2022-08-04T19:55:50.058Z,78.93
2022-08-04T19:58:26.060Z,78.95
2022-08-04T20:00:55.554Z,79.32
2022-08-04T20:04:09.697Z,79.67
2022-08-04T20:06:13.052Z,80.05
2022-08-04T20:08:48.533Z,80.25
2022-08-04T20:11:30.250Z,80.56
2022-08-04T20:13:58.548Z,80.68
2022-08-04T20:16:29.801Z,80.99
2022-08-04T20:19:03.352Z,81.44
2022-08-04T20:21:53.630Z,81.51
2022-08-04T20:24:38.644Z,81.59
2022-08-04T20:27:15.830Z,81.79
2022-08-04T20:29:48.587Z,81.82
2022-08-04T20:32:22.560Z,81.83
2022-08-04T20:34:52.993Z,82.17
2022-08-04T20:37:25.720Z,82.18
2022-08-04T20:40:14.735Z,82.54
2022-08-04T20:45:31.799Z,82.65
2022-08-04T20:48:20.189Z,82.63
2022-08-04T20:50:53.982Z,82.90
2022-08-04T20:53:46.881Z,82.85
2022-08-04T20:56:10.785Z,83.00
2022-08-04T20:58:47.775Z,83.14
2022-08-04T21:01:16.301Z,83.29
2022-08-04T21:04:03.403Z,83.39
2022-08-04T21:06:31.777Z,83.38
2022-08-04T21:09:01.149Z,83.62
2022-08-04T21:11:38.090Z,83.85
2022-08-04T21:14:11.980Z,84.17
2022-08-04T21:16:54.198Z,84.25
2022-08-04T21:19:26.968Z,84.45
2022-08-04T21:21:55.456Z,84.63
2022-08-04T21:24:26.149Z,84.66
2022-08-04T21:26:57.218Z,84.84
2022-08-04T21:29:34.899Z,84.78
2022-08-04T21:32:07.572Z,84.97
2022-08-04T21:34:39.618Z,85.45
2022-08-04T21:37:11.288Z,85.76
2022-08-04T21:39:43.898Z,85.84
2022-08-04T21:42:27.920Z,86.06
2022-08-04T21:44:58.867Z,86.03
2022-08-04T21:47:45.733Z,86.08
2022-08-04T21:50:14.575Z,86.26
2022-08-04T21:56:06.132Z,86.29
2022-08-04T22:01:14.520Z,86.23
2022-08-04T22:04:02.839Z,86.67
2022-08-04T22:06:31.104Z,86.76
2022-08-04T22:08:59.370Z,86.99
2022-08-04T22:11:49.244Z,87.10
2022-08-04T22:14:29.060Z,87.18
2022-08-04T22:17:04.145Z,87.06
2022-08-04T22:22:26.175Z,87.63
2022-08-04T22:24:58.776Z,87.77
2022-08-04T22:27:47.331Z,88.00
2022-08-04T22:30:17.997Z,88.17
2022-08-04T22:32:47.407Z,88.04
2022-08-04T22:35:36.152Z,88.30
2022-08-04T22:38:24.031Z,88.34
2022-08-04T22:41:03.000Z,88.53
2022-08-04T22:43:34.401Z,88.50
2022-08-04T22:46:27.919Z,88.74
2022-08-04T22:48:56.901Z,88.83
2022-08-04T22:51:27.021Z,89.12
2022-08-04T22:53:55.739Z,89.05
2022-08-04T22:56:37.728Z,89.19
2022-08-04T22:59:11.036Z,89.28
2022-08-04T23:02:00.011Z,89.45
2022-08-04T23:04:32.662Z,89.84
2022-08-04T23:07:08.902Z,89.96
2022-08-04T23:09:49.837Z,90.09
2022-08-04T23:12:25.948Z,90.12
2022-08-04T23:14:57.306Z,90.37
2022-08-04T23:17:28.190Z,90.45
2022-08-04T23:19:59.680Z,91.03
2022-08-04T23:22:42.153Z,91.01
2022-08-04T23:25:16.476Z,90.78
2022-08-04T23:27:51.187Z,91.18
2022-08-04T23:30:29.433Z,91.34
2022-08-04T23:32:58.757Z,91.40
2022-08-04T23:35:27.683Z,90.99
2022-08-04T23:37:58.073Z,91.01
2022-08-04T23:40:34.095Z,90.68
2022-08-04T23:43:12.174Z,90.70
2022-08-04T23:46:07.004Z,90.25
2022-08-04T23:48:36.790Z,89.96
2022-08-04T23:51:15.001Z,89.84
2022-08-04T23:54:01.638Z,89.86
2022-08-04T23:56:34.152Z,89.55
2022-08-04T23:59:04.548Z,89.38
